sensor_id;sensor_type;location;lat;lon;timestamp;temperature;humidity
31759;DHT22;36334;51.366;0.020;2022-07-15T00:00:18;16.80;99.90
31759;DHT22;36334;51.366;0.020;2022-07-15T00:03:04;16.80;99.90
31759;DHT22;36334;51.366;0.020;2022-07-15T00:05:51;16.80;99.90
31759;DHT22;36334;51.366;0.020;2022-07-15T00:08:37;16.80;99.90
31759;DHT22;36334;51.366;0.020;2022-07-15T00:11:24;16.80;99.90
31759;DHT22;36334;51.366;0.020;2022-07-15T00:14:09;16.80;99.90
31759;DHT22;36334;51.366;0.020;2022-07-15T00:16:55;16.70;99.90
31759;DHT22;36334;51.366;0.020;2022-07-15T00:19:42;16.70;99.90
31759;DHT22;36334;51.366;0.020;2022-07-15T00:22:28;16.70;99.90
31759;DHT22;36334;51.366;0.020;2022-07-15T00:25:15;16.60;99.90
31759;DHT22;36334;51.366;0.020;2022-07-15T00:28:06;16.50;99.90
31759;DHT22;36334;51.366;0.020;2022-07-15T00:30:53;16.50;99.90
31759;DHT22;36334;51.366;0.020;2022-07-15T00:33:39;16.50;99.90
31759;DHT22;36334;51.366;0.020;2022-07-15T00:36:25;16.40;99.90
31759;DHT22;36334;51.366;0.020;2022-07-15T00:39:11;16.40;99.90
31759;DHT22;36334;51.366;0.020;2022-07-15T00:41:57;16.40;99.90
31759;DHT22;36334;51.366;0.020;2022-07-15T00:44:43;16.40;99.90
31759;DHT22;36334;51.366;0.020;2022-07-15T00:47:30;16.40;99.90
31759;DHT22;36334;51.366;0.020;2022-07-15T00:50:18;16.30;99.90
31759;DHT22;36334;51.366;0.020;2022-07-15T00:53:17;16.30;99.90
31759;DHT22;36334;51.366;0.020;2022-07-15T00:56:07;16.20;99.90
31759;DHT22;36334;51.366;0.020;2022-07-15T00:58:55;16.10;99.90
31759;DHT22;36334;51.366;0.020;2022-07-15T01:01:45;16.10;99.90
31759;DHT22;36334;51.366;0.020;2022-07-15T01:04:32;16.00;99.90
31759;DHT22;36334;51.366;0.020;2022-07-15T01:07:19;16.00;99.90
31759;DHT22;36334;51.366;0.020;2022-07-15T01:10:06;15.90;99.90
31759;DHT22;36334;51.366;0.020;2022-07-15T01:12:53;15.90;99.90
31759;DHT22;36334;51.366;0.020;2022-07-15T01:15:45;15.80;99.90
31759;DHT22;36334;51.366;0.020;2022-07-15T01:18:32;15.70;99.90
31759;DHT22;36334;51.366;0.020;2022-07-15T01:21:19;15.70;99.90
31759;DHT22;36334;51.366;0.020;2022-07-15T01:24:08;15.60;99.90
31759;DHT22;36334;51.366;0.020;2022-07-15T01:27:05;15.60;99.90
31759;DHT22;36334;51.366;0.020;2022-07-15T01:29:53;15.50;99.90
31759;DHT22;36334;51.366;0.020;2022-07-15T01:32:42;15.40;99.90
31759;DHT22;36334;51.366;0.020;2022-07-15T01:35:29;15.40;99.90
31759;DHT22;36334;51.366;0.020;2022-07-15T01:38:15;15.30;99.90
31759;DHT22;36334;51.366;0.020;2022-07-15T01:41:03;15.30;99.90
31759;DHT22;36334;51.366;0.020;2022-07-15T01:43:50;15.20;99.90
31759;DHT22;36334;51.366;0.020;2022-07-15T01:46:37;15.20;99.90
31759;DHT22;36334;51.366;0.020;2022-07-15T01:49:23;15.20;99.90
31759;DHT22;36334;51.366;0.020;2022-07-15T01:52:18;15.20;99.90
31759;DHT22;36334;51.366;0.020;2022-07-15T01:55:06;15.10;99.90
31759;DHT22;36334;51.366;0.020;2022-07-15T01:57:53;15.00;99.90
31759;DHT22;36334;51.366;0.020;2022-07-15T02:00:40;15.00;99.90
31759;DHT22;36334;51.366;0.020;2022-07-15T02:03:26;14.90;99.90
31759;DHT22;36334;51.366;0.020;2022-07-15T02:06:13;14.90;99.90
31759;DHT22;36334;51.366;0.020;2022-07-15T02:09:00;14.90;99.90
31759;DHT22;36334;51.366;0.020;2022-07-15T02:11:49;14.80;99.90
31759;DHT22;36334;51.366;0.020;2022-07-15T02:14:38;14.80;99.90
31759;DHT22;36334;51.366;0.020;2022-07-15T02:17:25;14.80;99.90
31759;DHT22;36334;51.366;0.020;2022-07-15T02:20:11;14.80;99.90
31759;DHT22;36334;51.366;0.020;2022-07-15T02:22:58;14.80;99.90
31759;DHT22;36334;51.366;0.020;2022-07-15T02:25:44;14.80;99.90
31759;DHT22;36334;51.366;0.020;2022-07-15T02:28:30;14.80;99.90
31759;DHT22;36334;51.366;0.020;2022-07-15T02:31:17;14.70;99.90
31759;DHT22;36334;51.366;0.020;2022-07-15T02:34:05;14.70;99.90
31759;DHT22;36334;51.366;0.020;2022-07-15T02:36:56;14.70;99.90
31759;DHT22;36334;51.366;0.020;2022-07-15T02:39:43;14.70;99.90
31759;DHT22;36334;51.366;0.020;2022-07-15T02:42:29;14.60;99.90
31759;DHT22;36334;51.366;0.020;2022-07-15T02:45:17;14.60;99.90
31759;DHT22;36334;51.366;0.020;2022-07-15T02:48:04;14.60;99.90
31759;DHT22;36334;51.366;0.020;2022-07-15T02:50:53;14.50;99.90
31759;DHT22;36334;51.366;0.020;2022-07-15T02:53:40;14.50;99.90
31759;DHT22;36334;51.366;0.020;2022-07-15T02:56:31;14.50;99.90
31759;DHT22;36334;51.366;0.020;2022-07-15T02:59:18;14.50;99.90
31759;DHT22;36334;51.366;0.020;2022-07-15T03:02:08;14.50;99.90
31759;DHT22;36334;51.366;0.020;2022-07-15T03:04:55;14.40;99.90
31759;DHT22;36334;51.366;0.020;2022-07-15T03:07:42;14.40;99.90
31759;DHT22;36334;51.366;0.020;2022-07-15T03:10:28;14.30;99.90
31759;DHT22;36334;51.366;0.020;2022-07-15T03:13:15;14.30;99.90
31759;DHT22;36334;51.366;0.020;2022-07-15T03:16:01;14.20;99.90
31759;DHT22;36334;51.366;0.020;2022-07-15T03:18:50;14.20;99.90
31759;DHT22;36334;51.366;0.020;2022-07-15T03:21:37;14.20;99.90
31759;DHT22;36334;51.366;0.020;2022-07-15T03:24:23;14.10;99.90
31759;DHT22;36334;51.366;0.020;2022-07-15T03:27:09;14.10;99.90
31759;DHT22;36334;51.366;0.020;2022-07-15T03:29:56;14.10;99.90
31759;DHT22;36334;51.366;0.020;2022-07-15T03:32:44;14.10;99.90
31759;DHT22;36334;51.366;0.020;2022-07-15T03:35:30;14.10;99.90
31759;DHT22;36334;51.366;0.020;2022-07-15T03:38:16;14.10;99.90
31759;DHT22;36334;51.366;0.020;2022-07-15T03:41:02;14.10;99.90
31759;DHT22;36334;51.366;0.020;2022-07-15T03:43:49;14.10;99.90
31759;DHT22;36334;51.366;0.020;2022-07-15T03:46:37;14.10;99.90
31759;DHT22;36334;51.366;0.020;2022-07-15T03:49:23;14.00;99.90
31759;DHT22;36334;51.366;0.020;2022-07-15T03:52:11;14.00;99.90
31759;DHT22;36334;51.366;0.020;2022-07-15T03:54:57;14.00;99.90
31759;DHT22;36334;51.366;0.020;2022-07-15T03:57:43;14.00;99.90
31759;DHT22;36334;51.366;0.020;2022-07-15T04:00:29;14.00;99.90
31759;DHT22;36334;51.366;0.020;2022-07-15T04:03:17;13.90;99.90
31759;DHT22;36334;51.366;0.020;2022-07-15T04:06:03;13.90;99.90
31759;DHT22;36334;51.366;0.020;2022-07-15T04:08:51;13.90;99.90
31759;DHT22;36334;51.366;0.020;2022-07-15T04:11:38;13.80;99.90
31759;DHT22;36334;51.366;0.020;2022-07-15T04:14:28;13.80;99.90
31759;DHT22;36334;51.366;0.020;2022-07-15T04:17:14;13.70;99.90
31759;DHT22;36334;51.366;0.020;2022-07-15T04:20:01;13.60;99.90
31759;DHT22;36334;51.366;0.020;2022-07-15T04:22:47;13.60;99.90
31759;DHT22;36334;51.366;0.020;2022-07-15T04:25:34;13.50;99.90
31759;DHT22;36334;51.366;0.020;2022-07-15T04:28:22;13.40;99.90
31759;DHT22;36334;51.366;0.020;2022-07-15T04:31:09;13.40;99.90
31759;DHT22;36334;51.366;0.020;2022-07-15T04:34:05;13.40;99.90
31759;DHT22;36334;51.366;0.020;2022-07-15T04:36:52;13.40;99.90
31759;DHT22;36334;51.366;0.020;2022-07-15T04:39:37;13.40;99.90
31759;DHT22;36334;51.366;0.020;2022-07-15T04:42:24;13.40;99.90
31759;DHT22;36334;51.366;0.020;2022-07-15T04:45:10;13.40;99.90
31759;DHT22;36334;51.366;0.020;2022-07-15T04:47:57;13.40;99.90
31759;DHT22;36334;51.366;0.020;2022-07-15T04:50:50;13.40;99.90
31759;DHT22;36334;51.366;0.020;2022-07-15T04:53:44;13.40;99.90
31759;DHT22;36334;51.366;0.020;2022-07-15T04:56:30;13.40;99.90
31759;DHT22;36334;51.366;0.020;2022-07-15T04:59:23;13.30;99.90
31759;DHT22;36334;51.366;0.020;2022-07-15T05:02:09;13.30;99.90
31759;DHT22;36334;51.366;0.020;2022-07-15T05:04:59;13.40;99.90
31759;DHT22;36334;51.366;0.020;2022-07-15T05:07:46;13.40;99.90
31759;DHT22;36334;51.366;0.020;2022-07-15T05:10:34;13.40;99.90
31759;DHT22;36334;51.366;0.020;2022-07-15T05:13:21;13.50;99.90
31759;DHT22;36334;51.366;0.020;2022-07-15T05:16:08;13.50;99.90
31759;DHT22;36334;51.366;0.020;2022-07-15T05:18:55;13.50;99.90
31759;DHT22;36334;51.366;0.020;2022-07-15T05:21:41;13.60;99.90
31759;DHT22;36334;51.366;0.020;2022-07-15T05:24:27;13.60;99.90
31759;DHT22;36334;51.366;0.020;2022-07-15T05:27:17;13.70;99.90
31759;DHT22;36334;51.366;0.020;2022-07-15T05:30:06;13.70;99.90
31759;DHT22;36334;51.366;0.020;2022-07-15T05:32:55;13.80;99.90
31759;DHT22;36334;51.366;0.020;2022-07-15T05:35:41;13.90;99.90
31759;DHT22;36334;51.366;0.020;2022-07-15T05:38:28;14.00;99.90
31759;DHT22;36334;51.366;0.020;2022-07-15T05:41:14;14.20;99.90
31759;DHT22;36334;51.366;0.020;2022-07-15T05:44:01;14.20;99.90
31759;DHT22;36334;51.366;0.020;2022-07-15T05:46:49;14.40;99.90
31759;DHT22;36334;51.366;0.020;2022-07-15T05:49:40;14.50;99.90
31759;DHT22;36334;51.366;0.020;2022-07-15T05:52:29;14.50;99.90
31759;DHT22;36334;51.366;0.020;2022-07-15T05:55:17;14.60;99.90
31759;DHT22;36334;51.366;0.020;2022-07-15T05:58:07;14.70;99.90
31759;DHT22;36334;51.366;0.020;2022-07-15T06:00:57;14.80;99.90
31759;DHT22;36334;51.366;0.020;2022-07-15T06:03:48;14.90;99.90
31759;DHT22;36334;51.366;0.020;2022-07-15T06:06:36;15.00;99.90
31759;DHT22;36334;51.366;0.020;2022-07-15T06:09:22;15.10;99.90
31759;DHT22;36334;51.366;0.020;2022-07-15T06:12:08;15.30;99.90
31759;DHT22;36334;51.366;0.020;2022-07-15T06:14:55;15.40;99.90
31759;DHT22;36334;51.366;0.020;2022-07-15T06:17:43;15.50;99.90
31759;DHT22;36334;51.366;0.020;2022-07-15T06:20:30;15.60;99.90
31759;DHT22;36334;51.366;0.020;2022-07-15T06:23:18;15.70;99.90
31759;DHT22;36334;51.366;0.020;2022-07-15T06:26:04;15.80;99.90
31759;DHT22;36334;51.366;0.020;2022-07-15T06:28:51;15.90;99.90
31759;DHT22;36334;51.366;0.020;2022-07-15T06:31:39;16.00;99.90
31759;DHT22;36334;51.366;0.020;2022-07-15T06:34:26;16.10;99.90
31759;DHT22;36334;51.366;0.020;2022-07-15T06:37:12;16.20;99.90
31759;DHT22;36334;51.366;0.020;2022-07-15T06:39:59;16.20;99.90
31759;DHT22;36334;51.366;0.020;2022-07-15T06:42:45;16.30;99.90
31759;DHT22;36334;51.366;0.020;2022-07-15T06:45:42;16.40;99.90
31759;DHT22;36334;51.366;0.020;2022-07-15T06:48:29;16.40;99.90
31759;DHT22;36334;51.366;0.020;2022-07-15T06:51:15;16.50;99.90
31759;DHT22;36334;51.366;0.020;2022-07-15T06:54:02;16.50;99.90
31759;DHT22;36334;51.366;0.020;2022-07-15T06:56:50;16.60;99.90
31759;DHT22;36334;51.366;0.020;2022-07-15T06:59:37;16.60;99.90
31759;DHT22;36334;51.366;0.020;2022-07-15T07:02:24;16.70;99.90
31759;DHT22;36334;51.366;0.020;2022-07-15T07:05:10;16.70;99.90
31759;DHT22;36334;51.366;0.020;2022-07-15T07:07:57;16.80;99.90
31759;DHT22;36334;51.366;0.020;2022-07-15T07:10:44;16.80;99.90
31759;DHT22;36334;51.366;0.020;2022-07-15T07:13:30;16.90;99.90
31759;DHT22;36334;51.366;0.020;2022-07-15T07:16:17;17.00;99.90
31759;DHT22;36334;51.366;0.020;2022-07-15T07:19:03;17.10;99.70
31759;DHT22;36334;51.366;0.020;2022-07-15T07:21:49;17.10;99.50
31759;DHT22;36334;51.366;0.020;2022-07-15T07:24:36;17.10;99.40
31759;DHT22;36334;51.366;0.020;2022-07-15T07:27:21;17.20;99.30
31759;DHT22;36334;51.366;0.020;2022-07-15T07:30:08;17.20;99.10
31759;DHT22;36334;51.366;0.020;2022-07-15T07:32:54;17.20;98.90
31759;DHT22;36334;51.366;0.020;2022-07-15T07:35:40;17.20;98.90
31759;DHT22;36334;51.366;0.020;2022-07-15T07:38:26;17.30;98.80
31759;DHT22;36334;51.366;0.020;2022-07-15T07:41:12;17.30;98.70
31759;DHT22;36334;51.366;0.020;2022-07-15T07:43:58;17.30;98.60
31759;DHT22;36334;51.366;0.020;2022-07-15T07:46:44;17.40;98.40
31759;DHT22;36334;51.366;0.020;2022-07-15T07:49:30;17.50;98.20
31759;DHT22;36334;51.366;0.020;2022-07-15T07:52:21;17.60;98.00
31759;DHT22;36334;51.366;0.020;2022-07-15T07:55:13;17.60;97.60
31759;DHT22;36334;51.366;0.020;2022-07-15T07:58:00;17.70;97.40
31759;DHT22;36334;51.366;0.020;2022-07-15T08:00:47;17.80;97.10
31759;DHT22;36334;51.366;0.020;2022-07-15T08:03:33;17.90;96.90
31759;DHT22;36334;51.366;0.020;2022-07-15T08:06:19;17.90;96.40
31759;DHT22;36334;51.366;0.020;2022-07-15T08:09:07;18.00;96.20
31759;DHT22;36334;51.366;0.020;2022-07-15T08:11:53;18.10;96.10
31759;DHT22;36334;51.366;0.020;2022-07-15T08:14:39;18.10;95.90
31759;DHT22;36334;51.366;0.020;2022-07-15T08:17:25;18.20;95.70
31759;DHT22;36334;51.366;0.020;2022-07-15T08:20:11;18.20;95.40
31759;DHT22;36334;51.366;0.020;2022-07-15T08:22:59;18.30;95.20
31759;DHT22;36334;51.366;0.020;2022-07-15T08:25:46;18.40;94.80
31759;DHT22;36334;51.366;0.020;2022-07-15T08:28:32;18.40;94.50
31759;DHT22;36334;51.366;0.020;2022-07-15T08:31:38;18.50;94.30
31759;DHT22;36334;51.366;0.020;2022-07-15T08:34:25;18.60;94.20
31759;DHT22;36334;51.366;0.020;2022-07-15T08:37:11;18.60;93.80
31759;DHT22;36334;51.366;0.020;2022-07-15T08:39:57;18.70;93.40
31759;DHT22;36334;51.366;0.020;2022-07-15T08:42:44;18.70;93.30
31759;DHT22;36334;51.366;0.020;2022-07-15T08:45:35;18.80;93.20
31759;DHT22;36334;51.366;0.020;2022-07-15T08:48:27;18.80;93.00
31759;DHT22;36334;51.366;0.020;2022-07-15T08:51:14;18.80;93.00
31759;DHT22;36334;51.366;0.020;2022-07-15T08:54:01;18.80;92.90
31759;DHT22;36334;51.366;0.020;2022-07-15T08:56:47;18.90;92.80
31759;DHT22;36334;51.366;0.020;2022-07-15T08:59:33;18.90;92.70
31759;DHT22;36334;51.366;0.020;2022-07-15T09:02:20;19.00;92.40
31759;DHT22;36334;51.366;0.020;2022-07-15T09:05:20;19.00;92.10
31759;DHT22;36334;51.366;0.020;2022-07-15T09:08:13;19.00;91.90
31759;DHT22;36334;51.366;0.020;2022-07-15T09:11:00;19.00;91.80
31759;DHT22;36334;51.366;0.020;2022-07-15T09:13:49;19.00;91.60
31759;DHT22;36334;51.366;0.020;2022-07-15T09:16:35;19.00;91.60
31759;DHT22;36334;51.366;0.020;2022-07-15T09:19:22;19.10;91.50
31759;DHT22;36334;51.366;0.020;2022-07-15T09:22:08;19.20;91.20
31759;DHT22;36334;51.366;0.020;2022-07-15T09:25:09;19.30;91.10
31759;DHT22;36334;51.366;0.020;2022-07-15T09:27:57;19.40;90.80
31759;DHT22;36334;51.366;0.020;2022-07-15T09:30:46;19.50;90.80
31759;DHT22;36334;51.366;0.020;2022-07-15T09:33:57;19.50;90.60
31759;DHT22;36334;51.366;0.020;2022-07-15T09:36:47;19.60;90.40
31759;DHT22;36334;51.366;0.020;2022-07-15T09:39:53;19.60;90.10
31759;DHT22;36334;51.366;0.020;2022-07-15T09:43:06;19.70;89.40
31759;DHT22;36334;51.366;0.020;2022-07-15T09:45:59;19.70;88.80
31759;DHT22;36334;51.366;0.020;2022-07-15T09:48:47;19.80;88.70
31759;DHT22;36334;51.366;0.020;2022-07-15T09:54:47;19.90;87.80
31759;DHT22;36334;51.366;0.020;2022-07-15T09:57:34;19.90;87.30
31759;DHT22;36334;51.366;0.020;2022-07-15T10:00:20;19.90;86.80
31759;DHT22;36334;51.366;0.020;2022-07-15T10:03:06;20.00;86.70
31759;DHT22;36334;51.366;0.020;2022-07-15T10:05:53;20.00;86.40
31759;DHT22;36334;51.366;0.020;2022-07-15T10:08:43;20.10;86.10
31759;DHT22;36334;51.366;0.020;2022-07-15T10:11:34;20.20;86.00
31759;DHT22;36334;51.366;0.020;2022-07-15T10:24:08;20.50;84.70
31759;DHT22;36334;51.366;0.020;2022-07-15T10:29:50;20.70;82.70
31759;DHT22;36334;51.366;0.020;2022-07-15T10:33:12;20.70;83.40
31759;DHT22;36334;51.366;0.020;2022-07-15T10:36:04;20.90;82.50
31759;DHT22;36334;51.366;0.020;2022-07-15T10:39:02;20.90;82.10
31759;DHT22;36334;51.366;0.020;2022-07-15T10:41:57;21.10;81.50
31759;DHT22;36334;51.366;0.020;2022-07-15T10:47:35;21.20;80.30
31759;DHT22;36334;51.366;0.020;2022-07-15T10:50:38;21.30;80.20
31759;DHT22;36334;51.366;0.020;2022-07-15T10:53:25;21.40;79.40
31759;DHT22;36334;51.366;0.020;2022-07-15T10:56:42;21.50;78.90
31759;DHT22;36334;51.366;0.020;2022-07-15T10:59:36;21.50;78.40
31759;DHT22;36334;51.366;0.020;2022-07-15T11:02:24;21.50;78.60
31759;DHT22;36334;51.366;0.020;2022-07-15T11:05:19;21.60;78.20
31759;DHT22;36334;51.366;0.020;2022-07-15T11:14:47;21.90;75.40
31759;DHT22;36334;51.366;0.020;2022-07-15T11:20:23;22.10;74.70
31759;DHT22;36334;51.366;0.020;2022-07-15T11:23:09;22.20;74.30
31759;DHT22;36334;51.366;0.020;2022-07-15T11:25:56;22.20;73.80
31759;DHT22;36334;51.366;0.020;2022-07-15T11:28:55;22.30;73.00
31759;DHT22;36334;51.366;0.020;2022-07-15T11:31:43;22.40;72.70
31759;DHT22;36334;51.366;0.020;2022-07-15T11:34:43;22.50;72.60
31759;DHT22;36334;51.366;0.020;2022-07-15T11:37:35;22.60;72.50
31759;DHT22;36334;51.366;0.020;2022-07-15T11:40:21;22.70;72.60
31759;DHT22;36334;51.366;0.020;2022-07-15T11:43:26;22.80;72.30
31759;DHT22;36334;51.366;0.020;2022-07-15T11:46:31;22.90;72.00
31759;DHT22;36334;51.366;0.020;2022-07-15T11:49:35;23.10;71.90
31759;DHT22;36334;51.366;0.020;2022-07-15T11:52:25;23.20;71.40
31759;DHT22;36334;51.366;0.020;2022-07-15T11:55:11;23.30;71.30
31759;DHT22;36334;51.366;0.020;2022-07-15T11:57:58;23.40;70.70
31759;DHT22;36334;51.366;0.020;2022-07-15T12:00:48;23.40;70.50
31759;DHT22;36334;51.366;0.020;2022-07-15T12:03:51;23.50;70.10
31759;DHT22;36334;51.366;0.020;2022-07-15T12:06:37;23.60;69.70
31759;DHT22;36334;51.366;0.020;2022-07-15T12:09:24;23.70;70.00
31759;DHT22;36334;51.366;0.020;2022-07-15T12:12:10;23.70;69.50
31759;DHT22;36334;51.366;0.020;2022-07-15T12:14:57;23.80;68.60
31759;DHT22;36334;51.366;0.020;2022-07-15T12:17:44;23.80;68.00
31759;DHT22;36334;51.366;0.020;2022-07-15T12:20:31;23.90;68.20
31759;DHT22;36334;51.366;0.020;2022-07-15T12:23:17;23.90;67.90
31759;DHT22;36334;51.366;0.020;2022-07-15T12:26:07;23.90;67.40
31759;DHT22;36334;51.366;0.020;2022-07-15T12:28:59;24.00;67.50
31759;DHT22;36334;51.366;0.020;2022-07-15T12:31:54;24.10;67.70
31759;DHT22;36334;51.366;0.020;2022-07-15T12:40:27;24.20;67.00
31759;DHT22;36334;51.366;0.020;2022-07-15T12:43:14;24.20;67.00
31759;DHT22;36334;51.366;0.020;2022-07-15T12:46:00;24.40;67.20
31759;DHT22;36334;51.366;0.020;2022-07-15T12:48:48;24.50;67.10
31759;DHT22;36334;51.366;0.020;2022-07-15T12:51:35;24.70;66.90
31759;DHT22;36334;51.366;0.020;2022-07-15T12:54:21;24.90;66.60
31759;DHT22;36334;51.366;0.020;2022-07-15T12:57:28;25.20;66.50
31759;DHT22;36334;51.366;0.020;2022-07-15T13:00:18;25.50;65.30
31759;DHT22;36334;51.366;0.020;2022-07-15T13:05:56;25.70;64.80
31759;DHT22;36334;51.366;0.020;2022-07-15T13:08:44;25.80;64.60
31759;DHT22;36334;51.366;0.020;2022-07-15T13:11:30;25.90;64.40
31759;DHT22;36334;51.366;0.020;2022-07-15T13:14:16;26.00;64.00
31759;DHT22;36334;51.366;0.020;2022-07-15T13:17:02;26.00;63.80
31759;DHT22;36334;51.366;0.020;2022-07-15T13:19:48;25.90;64.00
31759;DHT22;36334;51.366;0.020;2022-07-15T13:22:34;25.70;63.80
31759;DHT22;36334;51.366;0.020;2022-07-15T13:25:20;25.60;63.90
31759;DHT22;36334;51.366;0.020;2022-07-15T13:28:08;25.60;63.60
31759;DHT22;36334;51.366;0.020;2022-07-15T13:30:55;25.70;63.50
31759;DHT22;36334;51.366;0.020;2022-07-15T13:33:41;25.80;63.40
31759;DHT22;36334;51.366;0.020;2022-07-15T13:36:39;25.90;63.20
31759;DHT22;36334;51.366;0.020;2022-07-15T13:39:25;26.00;63.70
31759;DHT22;36334;51.366;0.020;2022-07-15T13:42:11;26.20;62.70
31759;DHT22;36334;51.366;0.020;2022-07-15T13:44:57;26.20;62.70
31759;DHT22;36334;51.366;0.020;2022-07-15T13:47:43;26.30;62.90
31759;DHT22;36334;51.366;0.020;2022-07-15T13:50:30;26.50;62.40
31759;DHT22;36334;51.366;0.020;2022-07-15T13:53:35;26.60;62.20
31759;DHT22;36334;51.366;0.020;2022-07-15T13:56:21;26.60;61.70
31759;DHT22;36334;51.366;0.020;2022-07-15T13:59:07;26.60;61.00
31759;DHT22;36334;51.366;0.020;2022-07-15T14:01:55;26.50;61.60
31759;DHT22;36334;51.366;0.020;2022-07-15T14:04:41;26.60;62.20
31759;DHT22;36334;51.366;0.020;2022-07-15T14:07:27;26.80;62.00
31759;DHT22;36334;51.366;0.020;2022-07-15T14:10:14;27.00;62.00
31759;DHT22;36334;51.366;0.020;2022-07-15T14:13:00;27.20;61.10
31759;DHT22;36334;51.366;0.020;2022-07-15T14:15:47;27.40;61.10
31759;DHT22;36334;51.366;0.020;2022-07-15T14:18:33;27.50;61.30
31759;DHT22;36334;51.366;0.020;2022-07-15T14:21:35;27.60;61.30
31759;DHT22;36334;51.366;0.020;2022-07-15T14:24:28;27.70;61.10
31759;DHT22;36334;51.366;0.020;2022-07-15T14:27:14;27.50;61.00
31759;DHT22;36334;51.366;0.020;2022-07-15T14:30:01;27.40;61.30
31759;DHT22;36334;51.366;0.020;2022-07-15T14:32:54;27.30;61.00
31759;DHT22;36334;51.366;0.020;2022-07-15T14:35:41;27.20;61.20
31759;DHT22;36334;51.366;0.020;2022-07-15T14:38:27;27.10;61.10
31759;DHT22;36334;51.366;0.020;2022-07-15T14:41:14;27.30;61.30
31759;DHT22;36334;51.366;0.020;2022-07-15T14:44:01;27.70;61.30
31759;DHT22;36334;51.366;0.020;2022-07-15T14:46:47;28.00;60.80
31759;DHT22;36334;51.366;0.020;2022-07-15T14:49:33;28.20;60.60
31759;DHT22;36334;51.366;0.020;2022-07-15T14:52:20;28.40;60.20
31759;DHT22;36334;51.366;0.020;2022-07-15T14:55:06;28.40;60.10
31759;DHT22;36334;51.366;0.020;2022-07-15T14:57:52;28.40;60.30
31759;DHT22;36334;51.366;0.020;2022-07-15T15:00:42;28.30;59.90
31759;DHT22;36334;51.366;0.020;2022-07-15T15:03:30;28.10;59.30
31759;DHT22;36334;51.366;0.020;2022-07-15T15:06:17;27.90;59.60
31759;DHT22;36334;51.366;0.020;2022-07-15T15:09:07;27.70;59.70
31759;DHT22;36334;51.366;0.020;2022-07-15T15:11:53;27.60;59.80
31759;DHT22;36334;51.366;0.020;2022-07-15T15:17:27;27.50;59.10
31759;DHT22;36334;51.366;0.020;2022-07-15T15:20:13;27.80;59.70
31759;DHT22;36334;51.366;0.020;2022-07-15T15:22:59;28.00;59.50
31759;DHT22;36334;51.366;0.020;2022-07-15T15:25:46;28.20;59.50
31759;DHT22;36334;51.366;0.020;2022-07-15T15:28:57;28.10;59.40
31759;DHT22;36334;51.366;0.020;2022-07-15T15:31:43;28.00;59.60
31759;DHT22;36334;51.366;0.020;2022-07-15T15:34:30;27.80;59.90
31759;DHT22;36334;51.366;0.020;2022-07-15T15:37:17;27.60;59.70
31759;DHT22;36334;51.366;0.020;2022-07-15T15:40:03;27.40;60.00
31759;DHT22;36334;51.366;0.020;2022-07-15T15:42:50;27.30;60.00
31759;DHT22;36334;51.366;0.020;2022-07-15T15:45:36;27.20;60.20
31759;DHT22;36334;51.366;0.020;2022-07-15T15:48:22;27.10;60.50
31759;DHT22;36334;51.366;0.020;2022-07-15T15:51:08;27.00;60.70
31759;DHT22;36334;51.366;0.020;2022-07-15T15:53:54;26.90;60.70
31759;DHT22;36334;51.366;0.020;2022-07-15T15:56:41;26.90;60.80
31759;DHT22;36334;51.366;0.020;2022-07-15T15:59:27;27.10;60.80
31759;DHT22;36334;51.366;0.020;2022-07-15T16:02:14;27.80;60.90
31759;DHT22;36334;51.366;0.020;2022-07-15T16:05:01;28.30;60.00
31759;DHT22;36334;51.366;0.020;2022-07-15T16:08:03;28.40;59.60
31759;DHT22;36334;51.366;0.020;2022-07-15T16:10:50;28.20;59.00
31759;DHT22;36334;51.366;0.020;2022-07-15T16:13:36;28.00;59.10
31759;DHT22;36334;51.366;0.020;2022-07-15T16:16:23;27.90;59.40
31759;DHT22;36334;51.366;0.020;2022-07-15T16:19:10;27.90;59.40
31759;DHT22;36334;51.366;0.020;2022-07-15T16:21:56;28.30;59.50
31759;DHT22;36334;51.366;0.020;2022-07-15T16:25:01;29.70;58.90
31759;DHT22;36334;51.366;0.020;2022-07-15T16:27:48;31.70;58.10
31759;DHT22;36334;51.366;0.020;2022-07-15T16:30:34;33.40;56.90
31759;DHT22;36334;51.366;0.020;2022-07-15T16:33:20;34.80;55.40
31759;DHT22;36334;51.366;0.020;2022-07-15T16:36:06;36.00;54.30
31759;DHT22;36334;51.366;0.020;2022-07-15T16:38:53;37.10;53.20
31759;DHT22;36334;51.366;0.020;2022-07-15T16:41:39;38.10;51.60
31759;DHT22;36334;51.366;0.020;2022-07-15T16:44:26;38.70;50.30
31759;DHT22;36334;51.366;0.020;2022-07-15T16:47:12;38.80;49.30
31759;DHT22;36334;51.366;0.020;2022-07-15T16:49:59;38.90;48.80
31759;DHT22;36334;51.366;0.020;2022-07-15T16:52:45;38.90;48.90
31759;DHT22;36334;51.366;0.020;2022-07-15T16:55:31;39.00;48.00
31759;DHT22;36334;51.366;0.020;2022-07-15T16:58:17;39.00;48.00
31759;DHT22;36334;51.366;0.020;2022-07-15T17:01:04;39.20;48.00
31759;DHT22;36334;51.366;0.020;2022-07-15T17:03:49;39.40;47.80
31759;DHT22;36334;51.366;0.020;2022-07-15T17:06:36;39.50;47.20
31759;DHT22;36334;51.366;0.020;2022-07-15T17:09:22;39.80;47.50
31759;DHT22;36334;51.366;0.020;2022-07-15T17:12:08;40.20;47.70
31759;DHT22;36334;51.366;0.020;2022-07-15T17:14:55;40.00;46.90
31759;DHT22;36334;51.366;0.020;2022-07-15T17:17:41;40.00;46.90
31759;DHT22;36334;51.366;0.020;2022-07-15T17:20:30;40.30;46.90
31759;DHT22;36334;51.366;0.020;2022-07-15T17:23:17;40.70;46.70
31759;DHT22;36334;51.366;0.020;2022-07-15T17:26:03;40.20;45.40
31759;DHT22;36334;51.366;0.020;2022-07-15T17:28:49;39.10;46.40
31759;DHT22;36334;51.366;0.020;2022-07-15T17:31:36;38.00;46.80
31759;DHT22;36334;51.366;0.020;2022-07-15T17:34:22;37.60;47.20
31759;DHT22;36334;51.366;0.020;2022-07-15T17:37:08;37.30;47.30
31759;DHT22;36334;51.366;0.020;2022-07-15T17:39:54;36.60;47.60
31759;DHT22;36334;51.366;0.020;2022-07-15T17:42:40;36.00;48.10
31759;DHT22;36334;51.366;0.020;2022-07-15T17:45:26;36.00;48.40
31759;DHT22;36334;51.366;0.020;2022-07-15T17:48:12;36.50;48.30
31759;DHT22;36334;51.366;0.020;2022-07-15T17:50:58;37.20;48.20
31759;DHT22;36334;51.366;0.020;2022-07-15T17:53:45;37.80;47.80
31759;DHT22;36334;51.366;0.020;2022-07-15T17:56:31;37.30;47.30
31759;DHT22;36334;51.366;0.020;2022-07-15T17:59:17;36.10;47.60
31759;DHT22;36334;51.366;0.020;2022-07-15T18:02:04;34.40;48.50
31759;DHT22;36334;51.366;0.020;2022-07-15T18:04:50;32.90;49.60
31759;DHT22;36334;51.366;0.020;2022-07-15T18:07:36;31.70;50.60
31759;DHT22;36334;51.366;0.020;2022-07-15T18:10:22;30.70;51.60
31759;DHT22;36334;51.366;0.020;2022-07-15T18:13:09;29.90;52.80
31759;DHT22;36334;51.366;0.020;2022-07-15T18:15:56;29.10;53.50
31759;DHT22;36334;51.366;0.020;2022-07-15T18:18:42;28.30;54.30
31759;DHT22;36334;51.366;0.020;2022-07-15T18:21:28;27.70;54.90